createdAt,value
2023-05-20T00:00:38.712Z,1016.38
2023-05-20T00:01:38.714Z,1016.43
2023-05-20T00:02:38.774Z,1016.43
2023-05-20T00:03:38.920Z,1016.41
2023-05-20T00:04:38.709Z,1016.39
2023-05-20T00:05:38.728Z,1016.42
2023-05-20T00:06:38.639Z,1016.37
2023-05-20T00:07:38.623Z,1016.40
2023-05-20T00:08:38.619Z,1016.39
2023-05-20T00:09:39.340Z,1016.41
2023-05-20T00:10:38.607Z,1016.39
2023-05-20T00:11:38.703Z,1016.36
2023-05-20T00:12:38.576Z,1016.37
2023-05-20T00:13:38.565Z,1016.35
2023-05-20T00:14:38.554Z,1016.36
2023-05-20T00:15:38.577Z,1016.37
2023-05-20T00:16:38.571Z,1016.36
2023-05-20T00:17:38.552Z,1016.38
2023-05-20T00:18:38.606Z,1016.38
2023-05-20T00:19:38.495Z,1016.35
2023-05-20T00:20:38.492Z,1016.37
2023-05-20T00:21:38.461Z,1016.36
2023-05-20T00:22:38.457Z,1016.38
2023-05-20T00:23:38.457Z,1016.39
2023-05-20T00:24:38.428Z,1016.42
2023-05-20T00:25:38.448Z,1016.38
2023-05-20T00:26:38.450Z,1016.36
2023-05-20T00:27:38.441Z,1016.38
2023-05-20T00:28:38.384Z,1016.37
2023-05-20T00:29:38.387Z,1016.33
2023-05-20T00:30:38.376Z,1016.32
2023-05-20T00:31:38.400Z,1016.34
2023-05-20T00:32:38.439Z,1016.33
2023-05-20T00:33:38.335Z,1016.31
2023-05-20T00:34:38.327Z,1016.34
2023-05-20T00:35:38.325Z,1016.30
2023-05-20T00:36:38.303Z,1016.32
2023-05-20T00:37:38.294Z,1016.32
2023-05-20T00:38:38.284Z,1016.31
2023-05-20T00:39:38.272Z,1016.28
2023-05-20T00:40:38.279Z,1016.27
2023-05-20T00:41:38.249Z,1016.27
2023-05-20T00:42:38.254Z,1016.25
2023-05-20T00:43:38.233Z,1016.28
2023-05-20T00:44:38.216Z,1016.22
2023-05-20T00:45:38.222Z,1016.23
2023-05-20T00:46:38.312Z,1016.21
2023-05-20T00:47:38.213Z,1016.21
2023-05-20T00:48:38.173Z,1016.24
2023-05-20T00:49:38.148Z,1016.24
2023-05-20T00:50:38.144Z,1016.23
2023-05-20T00:51:38.134Z,1016.17
2023-05-20T00:52:38.133Z,1016.19
2023-05-20T00:53:38.120Z,1016.19
2023-05-20T00:54:38.105Z,1016.16
2023-05-20T00:55:38.099Z,1016.13
2023-05-20T00:56:38.101Z,1016.17
2023-05-20T00:57:38.076Z,1016.12
2023-05-20T00:58:38.048Z,1016.11
2023-05-20T00:59:38.066Z,1016.10
2023-05-20T01:00:38.025Z,1016.12
2023-05-20T01:01:38.128Z,1016.10
2023-05-20T01:02:38.191Z,1016.10
2023-05-20T01:03:38.132Z,1016.08
2023-05-20T01:04:37.990Z,1016.08
2023-05-20T01:05:40.590Z,1016.07
2023-05-20T01:06:37.970Z,1016.07
2023-05-20T01:07:37.938Z,1016.08
2023-05-20T01:08:37.949Z,1016.07
2023-05-20T01:09:37.918Z,1016.05
2023-05-20T01:10:37.909Z,1016.04
2023-05-20T01:11:37.946Z,1016.07
2023-05-20T01:12:37.891Z,1016.01
2023-05-20T01:13:37.888Z,1016.00
2023-05-20T01:14:37.882Z,1016.00
2023-05-20T01:15:38.059Z,1016.01
2023-05-20T01:16:37.975Z,1016.03
2023-05-20T01:17:38.051Z,1016.01
2023-05-20T01:18:37.816Z,1016.02
2023-05-20T01:19:37.803Z,1016.01
2023-05-20T01:20:37.839Z,1015.97
2023-05-20T01:21:37.790Z,1015.98
2023-05-20T01:22:37.789Z,1015.95
2023-05-20T01:23:37.771Z,1015.98
2023-05-20T01:24:37.750Z,1016.00
2023-05-20T01:25:37.749Z,1015.97
2023-05-20T01:26:37.767Z,1015.98
2023-05-20T01:27:37.713Z,1015.96
2023-05-20T01:28:37.724Z,1015.94
2023-05-20T01:29:37.715Z,1015.93
2023-05-20T01:30:37.693Z,1015.88
2023-05-20T01:31:37.735Z,1015.90
2023-05-20T01:32:37.770Z,1015.90
2023-05-20T01:33:37.650Z,1015.89
2023-05-20T01:34:37.638Z,1015.87
2023-05-20T01:35:37.624Z,1015.87
2023-05-20T01:36:37.629Z,1015.94
2023-05-20T01:37:37.621Z,1015.91
2023-05-20T01:38:37.609Z,1015.90
2023-05-20T01:39:37.578Z,1015.92
2023-05-20T01:40:37.589Z,1015.86
2023-05-20T01:41:37.561Z,1015.88
2023-05-20T01:42:37.586Z,1015.87
2023-05-20T01:43:37.542Z,1015.86
2023-05-20T01:44:37.535Z,1015.89
2023-05-20T01:45:37.524Z,1015.87
2023-05-20T01:46:37.556Z,1015.88
2023-05-20T01:47:37.586Z,1015.86
2023-05-20T01:48:37.499Z,1015.85
2023-05-20T01:49:37.479Z,1015.85
2023-05-20T01:50:37.480Z,1015.86
2023-05-20T01:51:37.442Z,1015.86
2023-05-20T01:52:37.458Z,1015.86
2023-05-20T01:53:37.439Z,1015.86
2023-05-20T01:54:37.427Z,1015.84
2023-05-20T01:55:37.412Z,1015.84
2023-05-20T01:56:37.408Z,1015.82
2023-05-20T01:57:37.409Z,1015.83
2023-05-20T01:58:37.383Z,1015.83
2023-05-20T01:59:37.353Z,1015.82
2023-05-20T02:00:37.388Z,1015.80
2023-05-20T02:01:37.415Z,1015.81
2023-05-20T02:02:37.511Z,1015.81
2023-05-20T02:03:37.353Z,1015.81
2023-05-20T02:04:37.328Z,1015.81
2023-05-20T02:05:37.693Z,1015.82
2023-05-20T02:06:37.299Z,1015.77
2023-05-20T02:07:37.295Z,1015.78
2023-05-20T02:08:37.271Z,1015.76
2023-05-20T02:09:37.242Z,1015.75
2023-05-20T02:10:37.254Z,1015.71
2023-05-20T02:11:37.236Z,1015.77
2023-05-20T02:12:37.223Z,1015.77
2023-05-20T02:13:37.239Z,1015.76
2023-05-20T02:14:37.200Z,1015.74
2023-05-20T02:15:37.265Z,1015.75
2023-05-20T02:16:37.283Z,1015.76
2023-05-20T02:17:37.259Z,1015.72
2023-05-20T02:18:37.162Z,1015.75
2023-05-20T02:19:37.184Z,1015.75
2023-05-20T02:20:37.185Z,1015.77
2023-05-20T02:21:37.139Z,1015.75
2023-05-20T02:22:37.131Z,1015.72
2023-05-20T02:23:37.093Z,1015.71
2023-05-20T02:24:37.077Z,1015.70
2023-05-20T02:25:37.069Z,1015.71
2023-05-20T02:26:37.055Z,1015.68
2023-05-20T02:27:37.058Z,1015.64
2023-05-20T02:28:37.047Z,1015.65
2023-05-20T02:29:37.016Z,1015.66
2023-05-20T02:30:37.031Z,1015.65
2023-05-20T02:31:36.997Z,1015.65
2023-05-20T02:32:37.054Z,1015.65
2023-05-20T02:33:36.994Z,1015.68
2023-05-20T02:34:36.970Z,1015.65
2023-05-20T02:35:37.047Z,1015.67
2023-05-20T02:36:36.961Z,1015.67
2023-05-20T02:37:36.954Z,1015.68
2023-05-20T02:38:36.934Z,1015.62
2023-05-20T02:39:36.920Z,1015.64
2023-05-20T02:40:36.918Z,1015.64
2023-05-20T02:41:36.899Z,1015.66
2023-05-20T02:42:36.892Z,1015.64
2023-05-20T02:43:36.887Z,1015.66
2023-05-20T02:44:36.874Z,1015.64
2023-05-20T02:45:36.899Z,1015.67
2023-05-20T02:46:36.893Z,1015.64
2023-05-20T02:47:36.876Z,1015.61
2023-05-20T02:48:36.818Z,1015.67
2023-05-20T02:49:36.813Z,1015.64
2023-05-20T02:50:36.806Z,1015.65
2023-05-20T02:51:36.795Z,1015.64
2023-05-20T02:52:36.793Z,1015.62
2023-05-20T02:53:36.757Z,1015.58
2023-05-20T02:54:36.760Z,1015.63
2023-05-20T02:55:36.839Z,1015.54
2023-05-20T02:56:36.715Z,1015.55
2023-05-20T02:57:36.732Z,1015.56
2023-05-20T02:58:36.694Z,1015.53
2023-05-20T02:59:36.696Z,1015.52
2023-05-20T03:00:36.669Z,1015.55
2023-05-20T03:01:36.715Z,1015.53
2023-05-20T03:02:36.677Z,1015.52
2023-05-20T03:03:36.641Z,1015.49
2023-05-20T03:04:36.666Z,1015.51
2023-05-20T03:05:36.624Z,1015.48
2023-05-20T03:06:36.621Z,1015.47
2023-05-20T03:07:36.700Z,1015.43
2023-05-20T03:08:36.583Z,1015.49
2023-05-20T03:09:36.587Z,1015.47
2023-05-20T03:10:36.558Z,1015.47
2023-05-20T03:11:36.566Z,1015.46
2023-05-20T03:12:36.570Z,1015.43
2023-05-20T03:13:36.531Z,1015.46
2023-05-20T03:14:36.529Z,1015.45
2023-05-20T03:15:36.842Z,1015.45
2023-05-20T03:16:36.532Z,1015.44
2023-05-20T03:17:36.554Z,1015.41
2023-05-20T03:18:36.481Z,1015.42
2023-05-20T03:19:36.473Z,1015.44
2023-05-20T03:20:36.447Z,1015.47
2023-05-20T03:21:36.450Z,1015.46
2023-05-20T03:22:36.471Z,1015.48
2023-05-20T03:23:36.437Z,1015.45
2023-05-20T03:24:36.411Z,1015.44
2023-05-20T03:25:36.513Z,1015.48
2023-05-20T03:26:36.376Z,1015.48
2023-05-20T03:27:36.405Z,1015.47
2023-05-20T03:28:36.380Z,1015.47
2023-05-20T03:29:36.363Z,1015.49
2023-05-20T03:30:36.334Z,1015.49
2023-05-20T03:31:36.364Z,1015.49
2023-05-20T03:32:36.388Z,1015.50
2023-05-20T03:33:36.302Z,1015.54
2023-05-20T03:34:36.285Z,1015.49
2023-05-20T03:35:36.666Z,1015.52
2023-05-20T03:36:36.262Z,1015.52
2023-05-20T03:37:36.274Z,1015.52
2023-05-20T03:38:36.254Z,1015.53
2023-05-20T03:39:36.307Z,1015.52
2023-05-20T03:40:36.232Z,1015.51
2023-05-20T03:41:36.220Z,1015.48
2023-05-20T03:42:36.258Z,1015.49
2023-05-20T03:43:36.210Z,1015.44
2023-05-20T03:44:36.194Z,1015.49
2023-05-20T03:45:36.486Z,1015.49
2023-05-20T03:46:36.215Z,1015.48
2023-05-20T03:47:36.214Z,1015.49
2023-05-20T03:48:36.145Z,1015.50
2023-05-20T03:49:36.141Z,1015.52
2023-05-20T03:50:36.104Z,1015.54
2023-05-20T03:51:36.098Z,1015.57
2023-05-20T03:52:36.085Z,1015.57
2023-05-20T03:53:36.077Z,1015.59
2023-05-20T03:54:36.078Z,1015.57
2023-05-20T03:55:36.291Z,1015.59
2023-05-20T03:56:36.051Z,1015.57
2023-05-20T03:57:36.034Z,1015.58
2023-05-20T03:58:36.032Z,1015.59
2023-05-20T03:59:36.028Z,1015.58
2023-05-20T04:00:35.994Z,1015.57
2023-05-20T04:01:35.998Z,1015.56
2023-05-20T04:02:36.022Z,1015.56
2023-05-20T04:03:36.148Z,1015.55
2023-05-20T04:04:35.951Z,1015.58
2023-05-20T04:05:36.177Z,1015.57
2023-05-20T04:06:35.953Z,1015.60
2023-05-20T04:07:35.954Z,1015.58
2023-05-20T04:08:35.917Z,1015.60
2023-05-20T04:09:35.901Z,1015.60
2023-05-20T04:10:35.881Z,1015.61
2023-05-20T04:11:35.910Z,1015.60
2023-05-20T04:12:35.862Z,1015.55
2023-05-20T04:13:35.881Z,1015.53
2023-05-20T04:14:35.869Z,1015.52
2023-05-20T04:15:36.026Z,1015.54
2023-05-20T04:16:35.858Z,1015.52
2023-05-20T04:17:35.829Z,1015.53
2023-05-20T04:18:35.805Z,1015.51
2023-05-20T04:19:35.784Z,1015.54
2023-05-20T04:20:35.806Z,1015.51
2023-05-20T04:21:35.776Z,1015.52
2023-05-20T04:22:35.778Z,1015.53
2023-05-20T04:23:35.742Z,1015.52
2023-05-20T04:24:35.727Z,1015.48
2023-05-20T04:25:35.748Z,1015.53
2023-05-20T04:26:35.721Z,1015.54
2023-05-20T04:27:35.719Z,1015.54
2023-05-20T04:28:35.707Z,1015.56
2023-05-20T04:29:35.676Z,1015.54
2023-05-20T04:30:35.679Z,1015.51
2023-05-20T04:31:35.689Z,1015.54
2023-05-20T04:32:35.683Z,1015.57
2023-05-20T04:33:35.674Z,1015.55
2023-05-20T04:34:35.625Z,1015.54
2023-05-20T04:35:35.918Z,1015.52
2023-05-20T04:36:35.589Z,1015.56
2023-05-20T04:37:35.598Z,1015.53
2023-05-20T04:38:35.598Z,1015.54
2023-05-20T04:39:35.573Z,1015.53
2023-05-20T04:40:35.561Z,1015.54
2023-05-20T04:41:35.550Z,1015.53
2023-05-20T04:42:35.529Z,1015.54
2023-05-20T04:43:35.580Z,1015.55
2023-05-20T04:44:35.501Z,1015.54
2023-05-20T04:45:35.620Z,1015.58
2023-05-20T04:46:35.539Z,1015.58
2023-05-20T04:47:35.496Z,1015.56
2023-05-20T04:48:35.488Z,1015.58
2023-05-20T04:49:35.493Z,1015.56
2023-05-20T04:50:35.439Z,1015.57
2023-05-20T04:51:35.481Z,1015.57
2023-05-20T04:52:35.411Z,1015.56
2023-05-20T04:53:35.422Z,1015.58
2023-05-20T04:54:35.401Z,1015.58
2023-05-20T04:55:35.547Z,1015.60
2023-05-20T04:56:35.369Z,1015.61
2023-05-20T04:57:35.362Z,1015.63
2023-05-20T04:58:35.376Z,1015.60
2023-05-20T04:59:35.378Z,1015.61
2023-05-20T05:00:35.339Z,1015.61
2023-05-20T05:01:35.343Z,1015.62
2023-05-20T05:02:35.328Z,1015.66
2023-05-20T05:03:36.671Z,1015.60
2023-05-20T05:04:35.323Z,1015.60
2023-05-20T05:05:35.397Z,1015.54
2023-05-20T05:06:35.256Z,1015.55
2023-05-20T05:07:35.255Z,1015.56
2023-05-20T05:08:35.252Z,1015.56
2023-05-20T05:09:35.236Z,1015.58
2023-05-20T05:10:35.224Z,1015.59
2023-05-20T05:11:35.205Z,1015.54
2023-05-20T05:12:35.206Z,1015.57
2023-05-20T05:13:35.228Z,1015.56
2023-05-20T05:14:35.180Z,1015.56
2023-05-20T05:15:35.438Z,1015.54
2023-05-20T05:16:35.270Z,1015.57
2023-05-20T05:17:35.203Z,1015.55
2023-05-20T05:18:35.148Z,1015.55
2023-05-20T05:19:35.120Z,1015.57
2023-05-20T05:20:35.113Z,1015.53
2023-05-20T05:21:35.111Z,1015.56
2023-05-20T05:22:35.100Z,1015.53
2023-05-20T05:23:35.100Z,1015.53
2023-05-20T05:24:35.069Z,1015.51
2023-05-20T05:25:35.336Z,1015.47
2023-05-20T05:26:35.037Z,1015.46
2023-05-20T05:27:35.026Z,1015.48
2023-05-20T05:28:35.076Z,1015.44
2023-05-20T05:29:35.006Z,1015.44
2023-05-20T05:30:35.010Z,1015.39
2023-05-20T05:31:35.013Z,1015.38
2023-05-20T05:32:35.159Z,1015.37
2023-05-20T05:33:34.991Z,1015.38
2023-05-20T05:34:34.998Z,1015.37
2023-05-20T05:35:35.155Z,1015.36
2023-05-20T05:36:34.958Z,1015.31
2023-05-20T05:37:34.933Z,1015.28
2023-05-20T05:38:34.911Z,1015.26
2023-05-20T05:39:34.920Z,1015.22
2023-05-20T05:40:34.888Z,1015.24
2023-05-20T05:41:34.873Z,1015.22
2023-05-20T05:42:34.866Z,1015.20
2023-05-20T05:43:34.845Z,1015.23
2023-05-20T05:44:34.882Z,1015.19
2023-05-20T05:45:34.966Z,1015.21
2023-05-20T05:46:34.918Z,1015.22
2023-05-20T05:47:34.880Z,1015.24
2023-05-20T05:48:34.809Z,1015.25
2023-05-20T05:49:34.789Z,1015.23
2023-05-20T05:50:34.782Z,1015.23
2023-05-20T05:51:36.432Z,1015.22
2023-05-20T05:52:34.769Z,1015.21
2023-05-20T05:53:34.752Z,1015.18
2023-05-20T05:54:34.718Z,1015.19
2023-05-20T05:55:34.898Z,1015.17
2023-05-20T05:56:34.708Z,1015.20
2023-05-20T05:57:34.687Z,1015.19
2023-05-20T05:58:34.697Z,1015.17
2023-05-20T05:59:34.673Z,1015.15
2023-05-20T06:00:34.712Z,1015.15
2023-05-20T06:01:34.660Z,1015.15
2023-05-20T06:02:34.713Z,1015.14
2023-05-20T06:03:34.929Z,1015.18
2023-05-20T06:04:34.630Z,1015.17
2023-05-20T06:05:34.927Z,1015.16
2023-05-20T06:06:34.595Z,1015.20
2023-05-20T06:07:34.582Z,1015.18
2023-05-20T06:08:34.571Z,1015.16
2023-05-20T06:09:34.566Z,1015.17
2023-05-20T06:10:34.561Z,1015.14
2023-05-20T06:11:34.541Z,1015.14
2023-05-20T06:12:34.514Z,1015.17
2023-05-20T06:13:34.505Z,1015.14
2023-05-20T06:14:34.503Z,1015.13
2023-05-20T06:15:34.899Z,1015.14
2023-05-20T06:16:34.496Z,1015.13
2023-05-20T06:17:34.527Z,1015.08
2023-05-20T06:18:34.477Z,1015.09
2023-05-20T06:19:34.582Z,1015.09
2023-05-20T06:20:34.437Z,1015.07
2023-05-20T06:21:34.413Z,1015.07
2023-05-20T06:22:34.417Z,1015.07
2023-05-20T06:23:34.439Z,1015.11
2023-05-20T06:24:34.388Z,1015.05
2023-05-20T06:25:34.585Z,1015.06
2023-05-20T06:26:34.373Z,1015.05
2023-05-20T06:27:34.360Z,1015.09
2023-05-20T06:28:34.334Z,1015.09
2023-05-20T06:29:34.364Z,1015.04
2023-05-20T06:30:34.324Z,1015.04
2023-05-20T06:31:34.476Z,1015.02
2023-05-20T06:32:34.328Z,1015.02
2023-05-20T06:33:34.299Z,1015.02
2023-05-20T06:34:34.269Z,1015.06
2023-05-20T06:35:34.533Z,1015.05
2023-05-20T06:36:34.252Z,1015.08
2023-05-20T06:37:34.294Z,1015.03
2023-05-20T06:38:34.219Z,1015.03
2023-05-20T06:39:34.227Z,1015.00
2023-05-20T06:40:34.229Z,1014.93
2023-05-20T06:41:34.190Z,1014.97
2023-05-20T06:42:34.208Z,1015.00
2023-05-20T06:43:34.174Z,1015.01
2023-05-20T06:44:34.157Z,1015.01
2023-05-20T06:45:34.453Z,1015.01
2023-05-20T06:46:34.176Z,1015.06
2023-05-20T06:47:34.191Z,1015.04
2023-05-20T06:48:34.112Z,1015.05
2023-05-20T06:49:34.120Z,1015.10
2023-05-20T06:50:34.114Z,1015.06
2023-05-20T06:51:34.120Z,1015.02
2023-05-20T06:52:34.082Z,1015.03
2023-05-20T06:53:34.076Z,1014.97
2023-05-20T06:54:34.056Z,1014.95
2023-05-20T06:55:34.271Z,1014.96
2023-05-20T06:56:34.017Z,1014.99
2023-05-20T06:57:34.012Z,1014.97
2023-05-20T06:58:34.015Z,1014.95
2023-05-20T06:59:34.036Z,1014.94
2023-05-20T07:00:33.990Z,1014.94
2023-05-20T07:01:34.052Z,1014.88
2023-05-20T07:02:34.004Z,1014.89
2023-05-20T07:03:34.028Z,1014.88
2023-05-20T07:04:33.928Z,1014.87
2023-05-20T07:05:34.123Z,1014.86
2023-05-20T07:06:33.917Z,1014.91
2023-05-20T07:07:33.929Z,1014.87
2023-05-20T07:08:33.887Z,1014.82
2023-05-20T07:09:33.874Z,1014.81
2023-05-20T07:10:34.033Z,1014.83
2023-05-20T07:11:33.851Z,1014.84
2023-05-20T07:12:36.060Z,1014.80
2023-05-20T07:13:33.838Z,1014.83
2023-05-20T07:14:33.829Z,1014.80
2023-05-20T07:15:34.035Z,1014.80
2023-05-20T07:16:33.824Z,1014.77
2023-05-20T07:17:33.829Z,1014.80
2023-05-20T07:18:33.783Z,1014.81
2023-05-20T07:19:33.767Z,1014.77
2023-05-20T07:20:33.774Z,1014.78
2023-05-20T07:21:33.746Z,1014.76
2023-05-20T07:22:33.739Z,1014.74
2023-05-20T07:23:33.730Z,1014.72
2023-05-20T07:24:33.700Z,1014.68
2023-05-20T07:25:33.989Z,1014.67
2023-05-20T07:26:33.703Z,1014.70
2023-05-20T07:27:33.692Z,1014.65
2023-05-20T07:28:33.656Z,1014.68
2023-05-20T07:29:33.658Z,1014.71
2023-05-20T07:30:33.636Z,1014.62
2023-05-20T07:31:33.646Z,1014.63
2023-05-20T07:32:33.663Z,1014.63
2023-05-20T07:33:33.639Z,1014.67
2023-05-20T07:34:33.591Z,1014.64
2023-05-20T07:35:33.827Z,1014.59
2023-05-20T07:36:33.581Z,1014.56
2023-05-20T07:37:33.550Z,1014.55
2023-05-20T07:38:33.579Z,1014.58
2023-05-20T07:39:33.559Z,1014.57
2023-05-20T07:40:33.919Z,1014.49
2023-05-20T07:41:33.526Z,1014.49
2023-05-20T07:42:33.533Z,1014.50
2023-05-20T07:43:33.493Z,1014.47
2023-05-20T07:44:33.487Z,1014.43
2023-05-20T07:45:33.615Z,1014.45
2023-05-20T07:46:33.494Z,1014.54
2023-05-20T07:47:33.500Z,1014.49
2023-05-20T07:48:33.467Z,1014.51
2023-05-20T07:49:33.432Z,1014.56
2023-05-20T07:50:33.434Z,1014.52
2023-05-20T07:51:33.398Z,1014.54
2023-05-20T07:52:43.951Z,1014.53
2023-05-20T07:53:34.379Z,1014.59
2023-05-20T07:54:33.369Z,1014.57
2023-05-20T07:55:33.656Z,1014.55
2023-05-20T07:56:33.379Z,1014.53
2023-05-20T07:57:33.332Z,1014.56
2023-05-20T07:58:33.341Z,1014.51
2023-05-20T07:59:33.327Z,1014.52
2023-05-20T08:00:33.306Z,1014.52
2023-05-20T08:01:33.300Z,1014.51
2023-05-20T08:02:33.352Z,1014.50
2023-05-20T08:03:33.384Z,1014.50
2023-05-20T08:04:33.287Z,1014.49
2023-05-20T08:05:33.601Z,1014.50
2023-05-20T08:06:33.254Z,1014.49
2023-05-20T08:07:33.234Z,1014.50
2023-05-20T08:08:33.214Z,1014.51
2023-05-20T08:09:33.205Z,1014.48
2023-05-20T08:10:33.205Z,1014.45
2023-05-20T08:11:33.400Z,1014.47
2023-05-20T08:12:33.166Z,1014.43
2023-05-20T08:13:33.174Z,1014.42
2023-05-20T08:14:33.161Z,1014.44
2023-05-20T08:15:33.445Z,1014.43
2023-05-20T08:16:33.198Z,1014.40
2023-05-20T08:17:33.134Z,1014.41
2023-05-20T08:18:33.140Z,1014.39
2023-05-20T08:19:33.227Z,1014.43
2023-05-20T08:20:33.082Z,1014.41
2023-05-20T08:21:33.088Z,1014.42
2023-05-20T08:22:33.073Z,1014.42
2023-05-20T08:23:36.370Z,1014.40
2023-05-20T08:24:33.050Z,1014.38
2023-05-20T08:25:33.350Z,1014.40
2023-05-20T08:26:33.025Z,1014.36
2023-05-20T08:27:33.039Z,1014.37
2023-05-20T08:28:33.018Z,1014.39
2023-05-20T08:29:32.993Z,1014.36
2023-05-20T08:30:32.980Z,1014.37
2023-05-20T08:31:33.106Z,1014.36
2023-05-20T08:32:32.958Z,1014.38
2023-05-20T08:33:32.945Z,1014.39
2023-05-20T08:34:32.942Z,1014.31
2023-05-20T08:35:33.119Z,1014.30
2023-05-20T08:36:32.915Z,1014.31
2023-05-20T08:37:32.888Z,1014.31
2023-05-20T08:38:32.879Z,1014.32
2023-05-20T08:39:32.876Z,1014.34
2023-05-20T08:40:32.867Z,1014.42
2023-05-20T08:41:32.870Z,1014.32
2023-05-20T08:42:32.848Z,1014.29
2023-05-20T08:43:32.924Z,1014.32
2023-05-20T08:44:32.826Z,1014.28
2023-05-20T08:45:33.107Z,1014.33
2023-05-20T08:46:32.860Z,1014.27
2023-05-20T08:47:32.822Z,1014.28
2023-05-20T08:48:32.784Z,1014.25
2023-05-20T08:49:32.787Z,1014.29
2023-05-20T08:50:32.750Z,1014.23
2023-05-20T08:51:32.764Z,1014.25
2023-05-20T08:52:32.739Z,1014.24
2023-05-20T08:53:32.723Z,1014.27
2023-05-20T08:54:32.704Z,1014.26
2023-05-20T08:55:32.996Z,1014.21
2023-05-20T08:56:32.696Z,1014.23
2023-05-20T08:57:32.684Z,1014.20
2023-05-20T08:58:32.740Z,1014.21
2023-05-20T08:59:32.735Z,1014.21
2023-05-20T09:00:32.639Z,1014.17
2023-05-20T09:01:32.667Z,1014.24
2023-05-20T09:02:32.666Z,1014.25
2023-05-20T09:03:32.613Z,1014.25
2023-05-20T09:04:32.655Z,1014.24
2023-05-20T09:05:32.884Z,1014.20
2023-05-20T09:06:33.080Z,1014.20
2023-05-20T09:07:32.571Z,1014.17
2023-05-20T09:08:32.561Z,1014.11
2023-05-20T09:09:32.534Z,1014.17
2023-05-20T09:10:32.542Z,1014.17
2023-05-20T09:11:32.536Z,1014.06
2023-05-20T09:12:32.524Z,1014.14
2023-05-20T09:13:32.560Z,1014.15
2023-05-20T09:14:32.487Z,1014.14
2023-05-20T09:15:32.740Z,1014.18
2023-05-20T09:16:32.492Z,1014.18
2023-05-20T09:17:32.514Z,1014.22
2023-05-20T09:18:32.438Z,1014.20
2023-05-20T09:19:32.601Z,1014.28
2023-05-20T09:20:32.432Z,1014.16
2023-05-20T09:21:32.431Z,1014.14
2023-05-20T09:22:32.415Z,1014.13
2023-05-20T09:23:32.412Z,1014.15
2023-05-20T09:24:32.373Z,1014.13
2023-05-20T09:25:32.579Z,1014.09
2023-05-20T09:26:32.373Z,1014.06
2023-05-20T09:27:32.350Z,1014.15
2023-05-20T09:28:32.328Z,1014.14
2023-05-20T09:29:32.314Z,1014.11
2023-05-20T09:30:32.309Z,1014.14
2023-05-20T09:31:32.383Z,1014.11
2023-05-20T09:32:32.377Z,1014.08
2023-05-20T09:33:32.471Z,1014.08
2023-05-20T09:34:32.265Z,1013.98
2023-05-20T09:35:32.412Z,1013.99
2023-05-20T09:36:32.263Z,1013.99
2023-05-20T09:37:32.237Z,1013.95
2023-05-20T09:38:32.217Z,1013.93
2023-05-20T09:39:32.213Z,1013.94
2023-05-20T09:40:32.196Z,1013.93
2023-05-20T09:41:32.200Z,1013.95
2023-05-20T09:42:32.190Z,1014.00
2023-05-20T09:43:32.176Z,1014.05
2023-05-20T09:44:32.166Z,1013.97
2023-05-20T09:45:32.158Z,1014.03
2023-05-20T09:46:32.212Z,1013.96
2023-05-20T09:47:32.166Z,1013.96
2023-05-20T09:48:34.138Z,1013.94
2023-05-20T09:49:32.097Z,1013.90
2023-05-20T09:50:32.112Z,1013.95
2023-05-20T09:51:32.099Z,1013.89
2023-05-20T09:52:32.078Z,1013.92
2023-05-20T09:53:32.055Z,1013.85
2023-05-20T09:54:32.058Z,1013.90
2023-05-20T09:55:32.195Z,1013.83
2023-05-20T09:56:32.025Z,1013.87
2023-05-20T09:57:32.046Z,1013.89
2023-05-20T09:58:32.014Z,1013.84
2023-05-20T09:59:32.025Z,1013.86
2023-05-20T10:00:31.985Z,1013.92
2023-05-20T10:01:32.026Z,1013.87
2023-05-20T10:02:32.021Z,1013.94
2023-05-20T10:03:32.218Z,1013.92
2023-05-20T10:04:31.968Z,1013.91
2023-05-20T10:05:32.076Z,1013.92
2023-05-20T10:06:31.937Z,1013.93
2023-05-20T10:07:41.841Z,1013.88
2023-05-20T10:08:32.923Z,1013.86
2023-05-20T10:09:31.898Z,1013.84
2023-05-20T10:10:31.870Z,1013.90
2023-05-20T10:11:31.883Z,1013.94
2023-05-20T10:12:31.866Z,1013.98
2023-05-20T10:13:31.842Z,1013.98
2023-05-20T10:14:31.868Z,1013.97
2023-05-20T10:15:31.901Z,1013.95
2023-05-20T10:16:31.879Z,1013.95
2023-05-20T10:17:31.815Z,1013.97
2023-05-20T10:18:31.829Z,1013.87
2023-05-20T10:19:31.827Z,1013.92
2023-05-20T10:20:31.813Z,1013.88
2023-05-20T10:21:31.759Z,1013.86
2023-05-20T10:22:31.755Z,1013.82
2023-05-20T10:23:31.744Z,1013.78
2023-05-20T10:24:31.723Z,1013.85
2023-05-20T10:25:31.730Z,1013.84
2023-05-20T10:26:31.713Z,1013.93
2023-05-20T10:27:31.682Z,1013.86
2023-05-20T10:28:31.718Z,1013.92
2023-05-20T10:29:31.674Z,1013.93
2023-05-20T10:30:31.669Z,1013.99
2023-05-20T10:31:31.658Z,1013.94
2023-05-20T10:32:31.850Z,1013.94
2023-05-20T10:33:31.701Z,1013.91
2023-05-20T10:34:31.627Z,1013.95
2023-05-20T10:35:31.646Z,1013.91
2023-05-20T10:36:31.619Z,1013.95
2023-05-20T10:37:31.590Z,1013.92
2023-05-20T10:38:31.577Z,1013.90
2023-05-20T10:39:31.571Z,1013.90
2023-05-20T10:40:31.556Z,1013.90
2023-05-20T10:41:31.558Z,1013.89
2023-05-20T10:42:31.535Z,1013.90
2023-05-20T10:43:31.518Z,1013.87
2023-05-20T10:44:31.501Z,1013.86
2023-05-20T10:45:31.520Z,1013.87
2023-05-20T10:46:40.140Z,1013.84
2023-05-20T10:47:32.529Z,1013.84
2023-05-20T10:48:31.583Z,1013.85
2023-05-20T10:49:31.476Z,1013.87
2023-05-20T10:50:31.638Z,1013.86
2023-05-20T10:51:31.457Z,1013.86
2023-05-20T10:52:31.409Z,1013.85
2023-05-20T10:53:34.516Z,1013.85
2023-05-20T10:54:31.388Z,1013.82
2023-05-20T10:55:31.374Z,1013.83
2023-05-20T10:56:31.382Z,1013.77
2023-05-20T10:57:31.352Z,1013.80
2023-05-20T10:58:31.345Z,1013.75
2023-05-20T10:59:31.343Z,1013.77
2023-05-20T11:00:31.335Z,1013.82
2023-05-20T11:01:31.369Z,1013.80
2023-05-20T11:02:31.314Z,1013.80
2023-05-20T11:03:31.365Z,1013.77
2023-05-20T11:04:31.294Z,1013.81
2023-05-20T11:05:31.278Z,1013.87
2023-05-20T11:06:31.283Z,1013.88
2023-05-20T11:07:31.283Z,1013.86
2023-05-20T11:08:31.248Z,1013.89
2023-05-20T11:09:31.219Z,1013.89
2023-05-20T11:10:31.229Z,1013.84
2023-05-20T11:11:31.239Z,1013.81
2023-05-20T11:12:31.303Z,1013.79
2023-05-20T11:13:31.178Z,1013.80
2023-05-20T11:14:31.172Z,1013.80
2023-05-20T11:15:31.166Z,1013.73
2023-05-20T11:16:31.250Z,1013.74
2023-05-20T11:17:31.181Z,1013.72
2023-05-20T11:18:31.154Z,1013.74
2023-05-20T11:19:31.180Z,1013.66
2023-05-20T11:20:31.104Z,1013.66
2023-05-20T11:21:31.122Z,1013.69
2023-05-20T11:22:31.082Z,1013.68
2023-05-20T11:23:31.095Z,1013.67
2023-05-20T11:24:31.063Z,1013.66
2023-05-20T11:25:31.078Z,1013.64
2023-05-20T11:26:31.074Z,1013.65
2023-05-20T11:27:31.132Z,1013.66
2023-05-20T11:28:31.048Z,1013.62
2023-05-20T11:29:31.018Z,1013.60
2023-05-20T11:30:30.998Z,1013.59
2023-05-20T11:31:31.032Z,1013.61
2023-05-20T11:32:31.083Z,1013.64
2023-05-20T11:33:30.979Z,1013.61
2023-05-20T11:35:30.955Z,1013.67
2023-05-20T11:36:30.960Z,1013.61
2023-05-20T11:37:30.930Z,1013.55
2023-05-20T11:38:30.904Z,1013.60
2023-05-20T11:39:30.918Z,1013.55
2023-05-20T11:40:35.874Z,1013.58
2023-05-20T11:41:31.893Z,1013.59
2023-05-20T11:42:30.873Z,1013.56
2023-05-20T11:43:30.842Z,1013.56
2023-05-20T11:44:30.850Z,1013.59
2023-05-20T11:45:30.820Z,1013.54
2023-05-20T11:46:30.912Z,1013.55
2023-05-20T11:47:30.859Z,1013.49
2023-05-20T11:48:30.793Z,1013.47
2023-05-20T11:49:31.010Z,1013.49
2023-05-20T11:50:30.780Z,1013.50
2023-05-20T11:51:30.790Z,1013.47
2023-05-20T11:52:30.763Z,1013.50
2023-05-20T11:53:30.732Z,1013.51
2023-05-20T11:54:30.725Z,1013.47
2023-05-20T11:55:30.750Z,1013.49
2023-05-20T11:56:30.728Z,1013.48
2023-05-20T11:57:30.690Z,1013.47
2023-05-20T11:58:30.683Z,1013.49
2023-05-20T11:59:30.668Z,1013.48
2023-05-20T12:00:39.582Z,1013.50
2023-05-20T12:01:31.667Z,1013.51
2023-05-20T12:02:30.758Z,1013.50
2023-05-20T12:03:30.737Z,1013.47
2023-05-20T12:04:30.701Z,1013.42
2023-05-20T12:05:30.617Z,1013.45
2023-05-20T12:06:30.625Z,1013.37